Terminal Aerodrome Forecast
Issued by NWS

Home | Current Version | Previous Version | Text Only | Print | Product List | Glossary On
Versions: 1 2 3 4 5 6 7 8 9 10 11 12 13 14 15 16 17 18 19 20 21 22 23 24 25 26 27 28 29 30
000
FTUS46 KLOX 020200 AAA
TAFLAX
TAF AMD
KLAX 020257Z 0203/0306 25006KT P6SM SKC
     FM020500 VRB03KT P6SM BKN012
     FM020800 VRB03KT P6SM OVC012
     FM021600 VRB03KT P6SM BKN017
     FM021800 25010KT P6SM FEW020=

USA.gov is the U.S. government's official web portal to all federal, state and local government web resources and services.